createdAt,value
2022-12-23T00:00:42.113Z,6.23
2022-12-23T00:03:10.621Z,6.24
2022-12-23T00:05:39.905Z,6.24
2022-12-23T00:08:08.480Z,6.24
2022-12-23T00:10:39.005Z,6.24
2022-12-23T00:13:40.636Z,6.25
2022-12-23T00:16:11.402Z,6.27
2022-12-23T00:18:40.187Z,6.27
2022-12-23T00:21:10.694Z,6.28
2022-12-23T00:23:41.232Z,6.28
2022-12-23T00:26:14.424Z,6.28
2022-12-23T00:28:43.940Z,6.27
2022-12-23T00:31:12.732Z,6.27
2022-12-23T00:33:42.366Z,6.27
2022-12-23T00:36:15.411Z,6.27
2022-12-23T00:39:01.167Z,6.27
2022-12-23T00:41:46.827Z,6.28
2022-12-23T00:44:16.261Z,6.28
2022-12-23T00:46:44.385Z,6.28
2022-12-23T00:49:30.693Z,6.28
2022-12-23T00:51:58.853Z,6.28
2022-12-23T00:54:27.267Z,6.28
2022-12-23T00:56:55.398Z,6.28
2022-12-23T00:59:24.834Z,6.27
2022-12-23T01:02:10.377Z,6.27
2022-12-23T01:04:56.058Z,6.27
2022-12-23T01:07:24.277Z,6.27
2022-12-23T01:09:52.361Z,6.28
2022-12-23T01:12:20.457Z,6.27
2022-12-23T01:14:49.897Z,6.29
2022-12-23T01:17:18.007Z,6.28
2022-12-23T01:19:46.114Z,6.27
2022-12-23T01:22:14.181Z,6.25
2022-12-23T01:24:42.332Z,6.24
2022-12-23T01:27:10.421Z,6.22
2022-12-23T01:29:38.490Z,6.20
2022-12-23T01:32:08.113Z,6.18
2022-12-23T01:34:37.452Z,6.17
2022-12-23T01:37:05.910Z,6.15
2022-12-23T01:39:34.081Z,6.12
2022-12-23T01:42:19.832Z,6.10
2022-12-23T01:44:54.809Z,6.08
2022-12-23T01:47:28.956Z,6.05
2022-12-23T01:50:00.284Z,6.05
2022-12-23T01:52:28.891Z,6.03
2022-12-23T01:54:57.316Z,6.02
2022-12-23T01:57:25.789Z,6.00
2022-12-23T02:00:11.246Z,6.00
2022-12-23T02:03:00.835Z,5.97
2022-12-23T02:05:29.251Z,5.96
2022-12-23T02:08:15.205Z,5.95
2022-12-23T02:10:58.365Z,5.95
2022-12-23T02:13:32.843Z,5.97
2022-12-23T02:16:18.086Z,5.95
2022-12-23T02:19:01.536Z,5.96
2022-12-23T02:21:39.803Z,5.96
2022-12-23T02:24:49.303Z,5.95
2022-12-23T02:27:20.664Z,5.95
2022-12-23T02:30:30.357Z,5.97
2022-12-23T02:33:36.447Z,5.99
2022-12-23T02:36:12.490Z,6.00
2022-12-23T02:38:47.072Z,5.99
2022-12-23T02:41:21.179Z,5.99
2022-12-23T02:43:52.731Z,5.99
2022-12-23T02:46:23.925Z,6.00
2022-12-23T02:48:56.251Z,5.99
2022-12-23T02:51:29.622Z,5.98
2022-12-23T02:54:00.501Z,5.99
2022-12-23T02:56:29.845Z,5.98
2022-12-23T02:59:00.845Z,5.98
2022-12-23T03:01:30.419Z,5.98
2022-12-23T03:04:00.469Z,5.98
2022-12-23T03:06:32.626Z,5.98
2022-12-23T03:09:01.623Z,5.98
2022-12-23T03:11:40.366Z,6.00
2022-12-23T03:14:25.662Z,6.00
2022-12-23T03:16:58.722Z,6.01
2022-12-23T03:19:33.092Z,6.01
2022-12-23T03:22:08.287Z,6.03
2022-12-23T03:24:40.824Z,6.03
2022-12-23T03:27:12.340Z,6.04
2022-12-23T03:29:44.868Z,6.06
2022-12-23T03:32:15.624Z,6.06
2022-12-23T03:34:48.598Z,6.06
2022-12-23T03:37:19.508Z,6.08
2022-12-23T03:39:50.892Z,6.10
2022-12-23T03:42:22.117Z,6.10
2022-12-23T03:45:27.989Z,6.12
2022-12-23T03:47:45.291Z,6.14
2022-12-23T03:50:16.535Z,6.15
2022-12-23T03:52:50.343Z,6.15
2022-12-23T03:55:22.027Z,6.14
2022-12-23T03:57:53.545Z,6.12
2022-12-23T04:00:21.635Z,6.11
2022-12-23T04:02:58.968Z,6.12
2022-12-23T04:05:31.384Z,6.13
2022-12-23T04:08:03.489Z,6.13
2022-12-23T04:10:32.363Z,6.12
2022-12-23T04:13:00.526Z,6.12
2022-12-23T04:15:28.973Z,6.11
2022-12-23T04:17:58.969Z,6.10
2022-12-23T04:20:28.401Z,6.10
2022-12-23T04:22:56.463Z,6.11
2022-12-23T04:25:24.541Z,6.09
2022-12-23T04:27:52.613Z,6.08
2022-12-23T04:30:20.694Z,6.06
2022-12-23T04:32:48.777Z,6.06
2022-12-23T04:35:16.929Z,6.05
2022-12-23T04:37:46.356Z,6.04
2022-12-23T04:40:14.723Z,6.03
2022-12-23T04:42:42.781Z,6.03
2022-12-23T04:45:11.744Z,6.02
2022-12-23T04:47:40.645Z,6.00
2022-12-23T04:50:14.384Z,5.98
2022-12-23T04:52:42.539Z,5.98
2022-12-23T04:55:12.613Z,5.97
2022-12-23T04:57:40.799Z,5.96
2022-12-23T05:00:10.086Z,5.98
2022-12-23T05:02:38.304Z,5.97
2022-12-23T05:05:07.186Z,5.95
2022-12-23T05:07:35.306Z,5.93
2022-12-23T05:10:03.479Z,5.92
2022-12-23T05:12:33.115Z,5.88
2022-12-23T05:15:01.380Z,5.88
2022-12-23T05:17:29.430Z,5.85
2022-12-23T05:19:57.459Z,5.82
2022-12-23T05:22:25.553Z,5.80
2022-12-23T05:24:53.649Z,5.77
2022-12-23T05:27:21.718Z,5.74
2022-12-23T05:29:51.139Z,5.73
2022-12-23T05:32:19.169Z,5.71
2022-12-23T05:34:47.266Z,5.71
2022-12-23T05:37:15.304Z,5.70
2022-12-23T05:39:43.358Z,5.68
2022-12-23T05:42:11.427Z,5.68
2022-12-23T05:44:39.470Z,5.67
2022-12-23T05:47:08.881Z,5.68
2022-12-23T05:49:36.930Z,5.67
2022-12-23T05:52:05.207Z,5.67
2022-12-23T05:54:33.263Z,5.69
2022-12-23T05:57:01.331Z,5.70
2022-12-23T05:59:31.638Z,5.71
2022-12-23T06:02:00.253Z,5.73
2022-12-23T06:04:29.988Z,5.75
2022-12-23T06:06:58.216Z,5.79
2022-12-23T06:09:26.336Z,5.80
2022-12-23T06:11:54.401Z,5.83
2022-12-23T06:14:28.397Z,5.86
2022-12-23T06:16:57.059Z,5.89
2022-12-23T06:19:25.567Z,5.90
2022-12-23T06:21:55.004Z,5.93
2022-12-23T06:24:23.370Z,5.95
2022-12-23T06:26:56.843Z,5.95
2022-12-23T06:29:25.627Z,5.96
2022-12-23T06:31:53.802Z,5.98
2022-12-23T06:34:21.926Z,5.99
2022-12-23T06:36:50.024Z,5.99
2022-12-23T06:39:20.273Z,6.00
2022-12-23T06:41:48.383Z,6.01
2022-12-23T06:44:16.470Z,6.03
2022-12-23T06:46:44.542Z,6.04
2022-12-23T06:49:13.738Z,6.04
2022-12-23T06:51:42.197Z,6.05
2022-12-23T06:54:11.331Z,6.05
2022-12-23T06:56:40.798Z,6.06
2022-12-23T06:59:08.868Z,6.07
2022-12-23T07:01:37.129Z,6.08
2022-12-23T07:04:05.571Z,6.07
2022-12-23T07:06:33.715Z,6.07
2022-12-23T07:09:01.769Z,6.04
2022-12-23T07:11:30.015Z,6.02
2022-12-23T07:14:00.407Z,6.01
2022-12-23T07:16:28.501Z,6.01
2022-12-23T07:18:56.581Z,6.03
2022-12-23T07:21:28.978Z,6.04
2022-12-23T07:23:58.049Z,6.03
2022-12-23T07:26:27.012Z,6.02
2022-12-23T07:28:55.115Z,6.02
2022-12-23T07:31:24.594Z,6.03
2022-12-23T07:33:52.740Z,6.03
2022-12-23T07:36:20.816Z,6.04
2022-12-23T07:38:51.276Z,6.04
2022-12-23T07:41:19.363Z,6.06
2022-12-23T07:43:47.556Z,6.06
2022-12-23T07:46:15.749Z,6.06
2022-12-23T07:48:45.470Z,6.06
2022-12-23T07:51:13.519Z,6.06
2022-12-23T07:53:41.614Z,6.06
2022-12-23T07:56:09.754Z,6.04
2022-12-23T07:58:37.853Z,6.04
2022-12-23T08:01:08.911Z,6.01
2022-12-23T08:03:37.735Z,5.98
2022-12-23T08:06:08.921Z,5.95
2022-12-23T08:08:37.043Z,5.90
2022-12-23T08:11:07.254Z,5.87
2022-12-23T08:13:37.140Z,5.82
2022-12-23T08:16:06.421Z,5.83
2022-12-23T08:18:36.217Z,5.81
2022-12-23T08:21:06.072Z,5.82
2022-12-23T08:23:35.635Z,5.83
2022-12-23T08:26:05.277Z,5.81
2022-12-23T08:28:34.185Z,5.78
2022-12-23T08:31:07.779Z,5.76
2022-12-23T08:33:38.139Z,5.73
2022-12-23T08:36:08.015Z,5.66
2022-12-23T08:38:38.107Z,5.63
2022-12-23T08:41:09.980Z,5.59
2022-12-23T08:43:38.241Z,5.56
2022-12-23T08:46:07.214Z,5.53
2022-12-23T08:48:36.429Z,5.55
2022-12-23T08:51:06.058Z,5.56
2022-12-23T08:53:35.071Z,5.57
2022-12-23T08:56:05.682Z,5.58
2022-12-23T08:58:36.896Z,5.61
2022-12-23T09:01:05.660Z,5.65
2022-12-23T09:03:34.485Z,5.68
2022-12-23T09:06:05.931Z,5.65
2022-12-23T09:08:34.146Z,5.64
2022-12-23T09:11:02.281Z,5.66
2022-12-23T09:13:35.711Z,5.66
2022-12-23T09:16:04.313Z,5.68
2022-12-23T09:18:32.588Z,5.71
2022-12-23T09:21:01.351Z,5.71
2022-12-23T09:23:29.488Z,5.71
2022-12-23T09:25:57.875Z,5.69
2022-12-23T09:28:26.415Z,5.71
2022-12-23T09:30:55.887Z,5.74
2022-12-23T09:33:24.173Z,5.76
2022-12-23T09:35:52.240Z,5.81
2022-12-23T09:38:20.310Z,5.88
2022-12-23T09:40:48.389Z,5.92
2022-12-23T09:43:27.235Z,5.93
2022-12-23T09:46:05.802Z,5.96
2022-12-23T09:48:36.884Z,6.02
2022-12-23T09:51:06.442Z,6.09
2022-12-23T09:53:46.807Z,6.16
2022-12-23T09:56:19.438Z,6.25
2022-12-23T09:58:52.217Z,6.36
2022-12-23T10:01:25.811Z,6.46
2022-12-23T10:04:11.229Z,6.60
2022-12-23T10:06:39.774Z,6.70
2022-12-23T10:09:09.850Z,6.78
2022-12-23T10:11:41.045Z,6.78
2022-12-23T10:14:15.776Z,6.78
2022-12-23T10:16:48.271Z,6.77
2022-12-23T10:19:20.388Z,6.79
2022-12-23T10:21:51.451Z,6.81
2022-12-23T10:24:22.695Z,6.89
2022-12-23T10:26:54.213Z,6.96
2022-12-23T10:29:24.050Z,7.01
2022-12-23T10:32:05.000Z,7.06
2022-12-23T10:34:42.308Z,7.09
2022-12-23T10:37:15.709Z,7.12
2022-12-23T10:39:50.584Z,7.13
2022-12-23T10:42:25.984Z,7.16
2022-12-23T10:45:32.454Z,7.25
2022-12-23T10:48:14.218Z,7.35
2022-12-23T10:50:58.223Z,7.43
2022-12-23T10:53:36.730Z,7.50
2022-12-23T10:56:06.483Z,7.53
2022-12-23T10:58:37.716Z,7.58
2022-12-23T11:01:14.979Z,7.63
2022-12-23T11:03:53.573Z,7.67
2022-12-23T11:06:22.409Z,7.70
2022-12-23T11:08:51.218Z,7.76
2022-12-23T11:11:19.329Z,7.77
2022-12-23T11:13:47.808Z,7.79
2022-12-23T11:16:23.325Z,7.84
2022-12-23T11:18:59.004Z,7.90
2022-12-23T11:21:27.587Z,7.97
2022-12-23T11:24:17.848Z,8.02
2022-12-23T11:26:48.345Z,8.02
2022-12-23T11:29:23.954Z,8.00
2022-12-23T11:31:52.630Z,8.02
2022-12-23T11:34:23.889Z,8.04
2022-12-23T11:37:00.232Z,8.06
2022-12-23T11:39:33.875Z,8.03
2022-12-23T11:42:08.808Z,8.00
2022-12-23T11:44:42.680Z,7.95
2022-12-23T11:47:30.787Z,7.88
2022-12-23T11:50:01.697Z,7.83
2022-12-23T11:52:30.848Z,7.80
2022-12-23T11:55:00.619Z,7.77
2022-12-23T11:57:37.623Z,7.73
2022-12-23T12:00:09.255Z,7.67
2022-12-23T12:02:40.632Z,7.62
2022-12-23T12:05:22.610Z,7.61
2022-12-23T12:07:52.464Z,7.65
2022-12-23T12:10:22.746Z,7.72
2022-12-23T12:12:54.858Z,7.77
2022-12-23T12:15:30.523Z,7.79
2022-12-23T12:17:58.884Z,7.78
2022-12-23T12:20:32.616Z,7.78
2022-12-23T12:23:03.329Z,7.81
2022-12-23T12:25:41.354Z,7.84
2022-12-23T12:28:14.458Z,7.91
2022-12-23T12:30:47.720Z,7.93
2022-12-23T12:33:20.460Z,7.91
2022-12-23T12:35:54.253Z,7.84
2022-12-23T12:38:26.564Z,7.76
2022-12-23T12:40:58.949Z,7.68
2022-12-23T12:43:30.173Z,7.62
2022-12-23T12:46:09.729Z,7.55
2022-12-23T12:48:45.989Z,7.48
2022-12-23T12:51:22.098Z,7.43
2022-12-23T12:54:05.656Z,7.42
2022-12-23T12:56:39.810Z,7.37
2022-12-23T12:59:09.485Z,7.31
2022-12-23T13:01:46.377Z,7.23
2022-12-23T13:04:49.907Z,7.13
2022-12-23T13:07:26.626Z,7.02
2022-12-23T13:10:02.671Z,6.91
2022-12-23T13:12:40.217Z,6.79
2022-12-23T13:15:18.417Z,6.76
2022-12-23T13:17:49.852Z,6.78
2022-12-23T13:20:25.416Z,6.77
2022-12-23T13:23:14.959Z,6.70
2022-12-23T13:25:51.441Z,6.61
2022-12-23T13:28:33.629Z,6.53
2022-12-23T13:31:06.675Z,6.42
2022-12-23T13:33:40.566Z,6.31
2022-12-23T13:36:14.260Z,6.19
2022-12-23T13:38:59.500Z,6.10
2022-12-23T13:41:33.460Z,6.00
2022-12-23T13:44:05.175Z,5.92
2022-12-23T13:46:40.847Z,5.83
2022-12-23T13:49:16.444Z,5.74
2022-12-23T13:51:49.297Z,5.68
2022-12-23T13:54:27.341Z,5.58
2022-12-23T13:57:08.065Z,5.52
2022-12-23T13:59:40.398Z,5.44
2022-12-23T14:02:42.683Z,5.37
2022-12-23T14:05:30.270Z,5.28
2022-12-23T14:07:59.642Z,5.22
2022-12-23T14:10:30.052Z,5.17
2022-12-23T14:13:03.901Z,5.12
2022-12-23T14:15:53.142Z,5.03
2022-12-23T14:18:47.699Z,4.96
2022-12-23T14:21:22.537Z,4.89
2022-12-23T14:24:04.890Z,4.82
2022-12-23T14:27:23.255Z,4.73
2022-12-23T14:30:05.665Z,4.63
2022-12-23T14:32:44.451Z,4.52
2022-12-23T14:35:26.122Z,4.40
2022-12-23T14:38:23.491Z,4.29
2022-12-23T14:40:58.583Z,4.19
2022-12-23T14:43:33.436Z,4.08
2022-12-23T14:46:04.694Z,3.98
2022-12-23T14:49:37.647Z,3.88
2022-12-23T14:51:58.224Z,3.77
2022-12-23T14:54:39.136Z,3.71
2022-12-23T14:57:16.932Z,3.66
2022-12-23T14:59:51.428Z,3.58
2022-12-23T15:02:23.115Z,3.50
2022-12-23T15:04:55.767Z,3.42
2022-12-23T15:07:27.215Z,3.33
2022-12-23T15:10:00.783Z,3.25
2022-12-23T15:12:33.433Z,3.16
2022-12-23T15:15:05.565Z,3.08
2022-12-23T15:17:35.436Z,2.99
2022-12-23T15:20:08.941Z,2.90
2022-12-23T15:22:37.052Z,2.84
2022-12-23T15:25:05.620Z,2.75
2022-12-23T15:27:36.683Z,2.69
2022-12-23T15:30:11.712Z,2.63
2022-12-23T15:32:42.305Z,2.57
2022-12-23T15:35:15.673Z,2.54
2022-12-23T15:37:43.865Z,2.53
2022-12-23T15:40:27.530Z,2.51
2022-12-23T15:42:55.786Z,2.50
2022-12-23T15:45:38.017Z,2.49
2022-12-23T15:48:07.614Z,2.49
2022-12-23T15:50:40.440Z,2.51
2022-12-23T15:53:10.839Z,2.54
2022-12-23T15:55:40.593Z,2.56
2022-12-23T15:58:09.148Z,2.55
2022-12-23T16:00:42.048Z,2.53
2022-12-23T16:03:24.985Z,2.51
2022-12-23T16:05:53.543Z,2.48
2022-12-23T16:08:29.115Z,2.45
2022-12-23T16:11:07.772Z,2.41
2022-12-23T16:13:37.406Z,2.33
2022-12-23T16:16:30.250Z,2.27
2022-12-23T16:18:58.354Z,2.21
2022-12-23T16:21:30.808Z,2.17
2022-12-23T16:23:59.710Z,2.12
2022-12-23T16:26:28.063Z,2.07
2022-12-23T16:28:59.286Z,2.03
2022-12-23T16:31:28.886Z,1.99
2022-12-23T16:33:58.148Z,1.95
2022-12-23T16:36:35.327Z,1.90
2022-12-23T16:39:15.961Z,1.87
2022-12-23T16:41:44.069Z,1.85
2022-12-23T16:44:12.152Z,1.81
2022-12-23T16:46:44.523Z,1.78
2022-12-23T16:49:16.171Z,1.75
2022-12-23T16:51:44.435Z,1.71
2022-12-23T16:54:15.156Z,1.68
2022-12-23T16:56:43.276Z,1.66
2022-12-23T16:59:11.530Z,1.64
2022-12-23T17:01:43.214Z,1.61
2022-12-23T17:04:11.544Z,1.60
2022-12-23T17:06:40.703Z,1.58
2022-12-23T17:09:11.422Z,1.56
2022-12-23T17:11:42.480Z,1.54
2022-12-23T17:14:15.871Z,1.52
2022-12-23T17:16:45.692Z,1.50
2022-12-23T17:19:13.868Z,1.46
2022-12-23T17:21:46.725Z,1.44
2022-12-23T17:24:20.836Z,1.42
2022-12-23T17:26:48.923Z,1.38
2022-12-23T17:29:17.072Z,1.35
2022-12-23T17:31:46.719Z,1.31
2022-12-23T17:34:16.765Z,1.30
2022-12-23T17:36:50.053Z,1.28
2022-12-23T17:39:18.747Z,1.27
2022-12-23T17:41:47.178Z,1.24
2022-12-23T17:44:16.321Z,1.22
2022-12-23T17:46:44.487Z,1.20
2022-12-23T17:49:14.082Z,1.18
2022-12-23T17:51:42.548Z,1.18
2022-12-23T17:54:18.751Z,1.16
2022-12-23T17:56:46.799Z,1.16
2022-12-23T17:59:14.859Z,1.15
2022-12-23T18:01:42.970Z,1.14
2022-12-23T18:04:11.081Z,1.13
2022-12-23T18:06:40.647Z,1.13
2022-12-23T18:09:08.729Z,1.12
2022-12-23T18:11:41.203Z,1.10
2022-12-23T18:14:12.832Z,1.09
2022-12-23T18:16:40.982Z,1.06
2022-12-23T18:19:14.904Z,1.03
2022-12-23T18:21:44.494Z,1.00
2022-12-23T18:24:12.556Z,0.99
2022-12-23T18:26:40.632Z,0.96
2022-12-23T18:29:08.739Z,0.94
2022-12-23T18:31:37.193Z,0.92
2022-12-23T18:34:05.313Z,0.91
2022-12-23T18:36:34.341Z,0.90
2022-12-23T18:39:03.912Z,0.90
2022-12-23T18:41:32.066Z,0.89
2022-12-23T18:44:00.157Z,0.91
2022-12-23T18:46:28.252Z,0.92
2022-12-23T18:48:56.329Z,0.93
2022-12-23T18:51:24.421Z,0.95
2022-12-23T18:53:52.466Z,0.97
2022-12-23T18:56:22.700Z,1.01
2022-12-23T18:58:50.792Z,1.06
2022-12-23T19:01:19.356Z,1.07
2022-12-23T19:03:47.586Z,1.11
2022-12-23T19:06:16.714Z,1.14
2022-12-23T19:08:45.292Z,1.17
2022-12-23T19:11:14.800Z,1.20
2022-12-23T19:13:44.702Z,1.22
2022-12-23T19:16:14.085Z,1.24
2022-12-23T19:18:42.359Z,1.26
2022-12-23T19:21:10.450Z,1.28
2022-12-23T19:23:38.595Z,1.31
2022-12-23T19:26:06.868Z,1.33
2022-12-23T19:28:35.041Z,1.37
2022-12-23T19:31:09.505Z,1.38
2022-12-23T19:33:38.180Z,1.41
2022-12-23T19:36:10.740Z,1.44
2022-12-23T19:38:39.025Z,1.45
2022-12-23T19:41:07.437Z,1.45
2022-12-23T19:43:36.033Z,1.44
2022-12-23T19:46:06.107Z,1.42
2022-12-23T19:48:35.752Z,1.41
2022-12-23T19:51:07.576Z,1.40
2022-12-23T19:53:35.912Z,1.39
2022-12-23T19:56:08.069Z,1.38
2022-12-23T19:58:38.754Z,1.37
2022-12-23T20:01:09.563Z,1.37
2022-12-23T20:03:39.276Z,1.37
2022-12-23T20:06:08.554Z,1.38
2022-12-23T20:08:36.639Z,1.41
2022-12-23T20:11:07.289Z,1.43
2022-12-23T20:13:35.892Z,1.45
2022-12-23T20:16:05.314Z,1.48
2022-12-23T20:18:33.575Z,1.50
2022-12-23T20:21:03.221Z,1.50
2022-12-23T20:23:32.191Z,1.51
2022-12-23T20:26:00.314Z,1.52
2022-12-23T20:28:28.618Z,1.52
2022-12-23T20:31:01.757Z,1.51
2022-12-23T20:33:29.843Z,1.49
2022-12-23T20:35:58.053Z,1.48
2022-12-23T20:38:27.547Z,1.46
2022-12-23T20:40:55.668Z,1.45
2022-12-23T20:43:23.752Z,1.44
2022-12-23T20:45:52.512Z,1.45
2022-12-23T20:48:21.734Z,1.45
2022-12-23T20:50:50.112Z,1.47
2022-12-23T20:53:18.408Z,1.48
2022-12-23T20:55:47.860Z,1.50
2022-12-23T20:58:33.587Z,1.50
2022-12-23T21:01:09.093Z,1.51
2022-12-23T21:03:37.424Z,1.52
2022-12-23T21:06:06.754Z,1.51
2022-12-23T21:08:35.004Z,1.51
2022-12-23T21:11:05.769Z,1.52
2022-12-23T21:13:35.415Z,1.51
2022-12-23T21:16:04.260Z,1.51
2022-12-23T21:18:32.680Z,1.49
2022-12-23T21:21:01.413Z,1.48
2022-12-23T21:23:30.163Z,1.46
2022-12-23T21:26:13.671Z,1.45
2022-12-23T21:28:43.254Z,1.45
2022-12-23T21:31:11.511Z,1.42
2022-12-23T21:33:41.356Z,1.41
2022-12-23T21:36:13.738Z,1.42
2022-12-23T21:38:46.354Z,1.42
2022-12-23T21:41:17.517Z,1.40
2022-12-23T21:43:45.770Z,1.38
2022-12-23T21:46:16.156Z,1.37
2022-12-23T21:48:44.754Z,1.35
2022-12-23T21:51:15.274Z,1.36
2022-12-23T21:53:44.166Z,1.38
2022-12-23T21:56:14.255Z,1.42
2022-12-23T21:58:44.039Z,1.47
2022-12-23T22:01:14.855Z,1.52
2022-12-23T22:03:43.115Z,1.56
2022-12-23T22:06:16.120Z,1.61
2022-12-23T22:08:44.625Z,1.66
2022-12-23T22:11:15.053Z,1.71
2022-12-23T22:13:45.228Z,1.75
2022-12-23T22:16:15.075Z,1.81
2022-12-23T22:18:44.246Z,1.85
2022-12-23T22:21:14.035Z,1.89
2022-12-23T22:23:42.724Z,1.91
2022-12-23T22:26:17.463Z,1.93
2022-12-23T22:28:49.761Z,1.94
2022-12-23T22:31:21.044Z,1.95
2022-12-23T22:33:49.593Z,1.97
2022-12-23T22:36:18.547Z,1.98
2022-12-23T22:38:54.036Z,1.99
2022-12-23T22:41:22.595Z,1.99
2022-12-23T22:43:52.608Z,2.00
2022-12-23T22:46:21.437Z,2.00
2022-12-23T22:48:49.747Z,2.01
2022-12-23T22:51:19.635Z,2.02
2022-12-23T22:53:48.714Z,2.03
2022-12-23T22:56:18.649Z,2.04
2022-12-23T22:58:47.178Z,2.05
2022-12-23T23:01:21.450Z,2.05
2022-12-23T23:03:51.051Z,2.05
2022-12-23T23:06:19.378Z,2.05
2022-12-23T23:08:47.460Z,2.05
2022-12-23T23:11:15.530Z,2.05
2022-12-23T23:13:43.667Z,2.04
2022-12-23T23:16:11.771Z,2.02
2022-12-23T23:18:41.369Z,2.03
2022-12-23T23:21:10.394Z,2.05
2022-12-23T23:23:38.469Z,2.07
2022-12-23T23:26:08.684Z,2.10
2022-12-23T23:28:36.988Z,2.11
2022-12-23T23:31:39.655Z,2.14
2022-12-23T23:33:54.493Z,2.17
2022-12-23T23:36:22.656Z,2.19
2022-12-23T23:38:50.774Z,2.23
2022-12-23T23:41:22.788Z,2.26
2022-12-23T23:43:51.655Z,2.29
2022-12-23T23:46:19.911Z,2.30
2022-12-23T23:48:48.897Z,2.32
2022-12-23T23:51:18.346Z,2.33
2022-12-23T23:53:46.384Z,2.33
2022-12-23T23:56:14.606Z,2.30
2022-12-23T23:58:42.657Z,2.27
